Time;durP1;ratioP1;P1;durP2;ratioP2;P2;SDS_P1;SDS_P2;PMS_P1;PMS_P2;Temp;Humidity;BMP_temperature;BMP_pressure;BME280_temperature;BME280_humidity;BME280_pressure;Samples;Min_cycle;Max_cycle;Signal;HPM_P1;HPM_P2
2021/06/25 00:00:47;;;;;;;10.47;7.50;;;13.70;99.90;;;;;;5068717;28;20227;-58
2021/06/25 00:03:13;;;;;;;9.87;7.27;;;13.70;99.90;;;;;;5063001;28;20293;-57
2021/06/25 00:05:40;;;;;;;10.87;7.57;;;13.60;99.90;;;;;;5064668;28;20565;-60
2021/06/25 00:08:07;;;;;;;9.83;7.60;;;13.60;99.90;;;;;;5065359;28;21172;-60
2021/06/25 00:10:34;;;;;;;10.37;8.43;;;13.50;99.90;;;;;;5060359;28;20343;-58
2021/06/25 00:13:02;;;;;;;11.70;7.30;;;13.30;99.90;;;;;;5058980;28;20676;-59
2021/06/25 00:15:29;;;;;;;11.73;8.13;;;13.30;99.90;;;;;;5061811;28;20210;-59
2021/06/25 00:17:58;;;;;;;9.37;7.60;;;13.40;99.90;;;;;;5060830;28;20245;-59
2021/06/25 00:20:26;;;;;;;10.90;8.27;;;13.30;99.90;;;;;;5061966;28;20288;-58
2021/06/25 00:22:56;;;;;;;10.47;8.00;;;13.30;99.90;;;;;;5060582;28;20214;-58
2021/06/25 00:25:24;;;;;;;13.87;8.10;;;13.10;99.90;;;;;;5062197;28;20230;-59
2021/06/25 00:27:50;;;;;;;12.37;8.57;;;13.20;99.90;;;;;;5061634;28;20283;-60
2021/06/25 00:30:18;;;;;;;13.33;7.67;;;13.20;99.90;;;;;;5060751;28;20603;-58
2021/06/25 00:32:46;;;;;;;11.87;8.67;;;13.10;99.90;;;;;;5061009;28;20308;-59
2021/06/25 00:35:14;;;;;;;13.23;8.90;;;13.10;99.90;;;;;;5062187;28;20204;-59
2021/06/25 00:37:42;;;;;;;11.07;7.87;;;13.00;99.90;;;;;;5061187;28;20690;-59
2021/06/25 00:40:11;;;;;;;15.87;9.70;;;13.10;99.90;;;;;;5061109;28;20643;-59
2021/06/25 00:42:38;;;;;;;12.20;8.53;;;12.90;99.90;;;;;;5063464;28;20569;-59
2021/06/25 00:45:16;;;;;;;13.00;8.90;;;13.10;99.90;;;;;;5057969;28;20332;-59
2021/06/25 00:47:45;;;;;;;12.37;8.97;;;13.10;99.90;;;;;;5064597;28;20296;-59
2021/06/25 00:50:15;;;;;;;11.10;8.10;;;13.10;99.90;;;;;;5059952;28;20258;-59
2021/06/25 00:52:43;;;;;;;14.73;9.67;;;13.00;99.90;;;;;;5061755;28;20239;-59
2021/06/25 00:55:10;;;;;;;12.03;9.00;;;13.00;99.90;;;;;;5060175;28;20362;-59
2021/06/25 00:57:37;;;;;;;12.83;8.93;;;13.00;99.90;;;;;;5061531;28;20271;-59
2021/06/25 01:00:05;;;;;;;13.60;9.60;;;13.00;99.90;;;;;;5062814;28;20743;-59
2021/06/25 01:02:32;;;;;;;11.47;8.27;;;12.70;99.90;;;;;;5063707;28;20242;-58
2021/06/25 01:04:59;;;;;;;12.80;9.10;;;12.70;99.90;;;;;;5062979;28;20634;-58
2021/06/25 01:07:30;;;;;;;10.67;8.23;;;12.70;99.90;;;;;;5064840;28;20247;-58
2021/06/25 01:09:58;;;;;;;16.47;9.53;;;12.80;99.90;;;;;;5060350;28;20344;-58
2021/06/25 01:12:26;;;;;;;16.93;9.50;;;12.70;99.90;;;;;;5063323;28;20636;-59
2021/06/25 01:14:53;;;;;;;12.70;9.07;;;12.70;99.90;;;;;;5062388;28;20277;-59
2021/06/25 01:17:29;;;;;;;12.47;8.77;;;12.70;99.90;;;;;;5063791;28;20270;-60
2021/06/25 01:19:57;;;;;;;12.63;8.57;;;12.70;99.90;;;;;;5059962;28;20385;-58
2021/06/25 01:22:34;;;;;;;15.33;9.30;;;12.70;99.90;;;;;;5059169;28;20317;-59
2021/06/25 01:25:25;;;;;;;13.90;9.07;;;12.60;99.90;;;;;;5059127;28;20656;-58
2021/06/25 01:27:55;;;;;;;12.33;8.90;;;12.60;99.90;;;;;;5058368;28;20204;-60
2021/06/25 01:30:27;;;;;;;11.10;8.87;;;12.60;99.90;;;;;;5060345;28;20333;-59
2021/06/25 01:32:57;;;;;;;13.13;9.10;;;12.70;99.90;;;;;;5047624;28;20233;-59
2021/06/25 01:35:23;;;;;;;14.30;9.70;;;12.60;99.90;;;;;;5061544;28;20288;-60
2021/06/25 01:37:51;;;;;;;13.13;8.87;;;12.70;99.90;;;;;;5063636;28;20239;-60
2021/06/25 01:40:19;;;;;;;13.17;8.80;;;12.60;99.90;;;;;;5060136;28;20208;-59
2021/06/25 01:42:47;;;;;;;12.23;9.20;;;12.50;99.90;;;;;;5059018;28;20690;-59
2021/06/25 01:45:14;;;;;;;11.17;8.37;;;12.60;99.90;;;;;;5060433;28;20282;-60
2021/06/25 01:47:43;;;;;;;13.13;9.73;;;12.50;99.90;;;;;;5065978;28;20281;-59
2021/06/25 01:50:15;;;;;;;12.40;8.57;;;12.50;99.90;;;;;;5057409;28;20256;-59
2021/06/25 01:52:51;;;;;;;13.77;9.33;;;12.50;99.90;;;;;;5058772;28;20294;-59
2021/06/25 01:55:19;;;;;;;13.10;8.83;;;12.50;99.90;;;;;;5060233;28;20257;-59
2021/06/25 01:57:46;;;;;;;10.77;8.70;;;12.50;99.90;;;;;;5064789;28;20750;-57
2021/06/25 02:00:13;;;;;;;13.27;9.97;;;12.50;99.90;;;;;;5067547;28;20236;-57
2021/06/25 02:02:40;;;;;;;13.20;9.90;;;12.50;99.90;;;;;;5060737;28;20597;-58
2021/06/25 02:05:09;;;;;;;16.67;10.40;;;12.40;99.90;;;;;;5063081;28;20199;-58
2021/06/25 02:07:37;;;;;;;14.33;9.83;;;12.40;99.90;;;;;;5063447;28;20195;-58
2021/06/25 02:10:06;;;;;;;14.37;10.40;;;12.30;99.90;;;;;;5065471;28;20595;-58
2021/06/25 02:12:34;;;;;;;14.77;9.83;;;12.30;99.90;;;;;;5063105;28;20204;-59
2021/06/25 02:15:07;;;;;;;10.80;8.43;;;12.40;99.90;;;;;;5064216;28;20207;-59
2021/06/25 02:17:34;;;;;;;13.77;9.43;;;12.40;99.90;;;;;;5064151;28;20249;-58
2021/06/25 02:20:01;;;;;;;12.97;9.00;;;12.30;99.90;;;;;;5063670;28;20601;-58
2021/06/25 02:22:28;;;;;;;13.07;9.77;;;12.30;99.90;;;;;;5063086;28;20272;-58
2021/06/25 02:24:54;;;;;;;17.20;10.17;;;12.40;99.90;;;;;;5061471;28;20633;-58
2021/06/25 02:27:21;;;;;;;12.17;9.30;;;12.30;99.90;;;;;;5063049;28;20283;-58
2021/06/25 02:29:48;;;;;;;11.93;8.50;;;12.30;99.90;;;;;;5066310;28;20291;-59
2021/06/25 02:32:15;;;;;;;11.37;8.53;;;12.10;99.90;;;;;;5064772;28;20226;-57
2021/06/25 02:34:42;;;;;;;15.20;9.90;;;12.10;99.90;;;;;;5062724;28;20329;-58
2021/06/25 02:37:09;;;;;;;15.07;9.30;;;12.00;99.90;;;;;;5065320;28;20407;-59
2021/06/25 02:39:35;;;;;;;15.80;9.83;;;12.10;99.90;;;;;;5065477;28;20230;-59
2021/06/25 02:42:04;;;;;;;12.70;10.10;;;11.90;99.90;;;;;;5062235;28;20211;-59
2021/06/25 02:44:31;;;;;;;14.80;10.27;;;11.90;99.90;;;;;;5064527;28;20415;-59
2021/06/25 02:46:58;;;;;;;13.83;9.93;;;11.90;99.90;;;;;;5062360;28;20289;-59
2021/06/25 02:49:25;;;;;;;15.47;10.17;;;11.90;99.90;;;;;;5062381;28;20207;-59
2021/06/25 02:51:52;;;;;;;15.53;10.10;;;11.90;99.90;;;;;;5061858;28;20207;-59
2021/06/25 02:54:18;;;;;;;16.17;10.17;;;11.90;99.90;;;;;;5065867;28;20683;-59
2021/06/25 02:56:45;;;;;;;14.03;10.37;;;12.00;99.90;;;;;;5058600;28;20289;-58
2021/06/25 02:59:12;;;;;;;16.57;9.90;;;11.90;99.90;;;;;;5055274;28;20310;-59
2021/06/25 03:01:39;;;;;;;15.17;10.17;;;11.80;99.90;;;;;;5064848;28;20604;-58
2021/06/25 03:04:06;;;;;;;18.47;11.90;;;11.90;99.90;;;;;;5061417;28;20248;-59
2021/06/25 03:06:33;;;;;;;16.27;10.43;;;11.80;99.90;;;;;;5065320;28;20197;-59
2021/06/25 03:09:00;;;;;;;15.67;9.67;;;11.80;99.90;;;;;;5059722;28;20230;-59
2021/06/25 03:11:26;;;;;;;17.17;11.10;;;11.80;99.90;;;;;;5057924;28;20739;-59
2021/06/25 03:13:53;;;;;;;16.53;10.97;;;11.70;99.90;;;;;;5064055;28;20293;-58
2021/06/25 03:16:20;;;;;;;16.33;10.57;;;11.80;99.90;;;;;;5062056;28;20306;-60
2021/06/25 03:18:47;;;;;;;13.27;9.73;;;11.90;99.90;;;;;;5064051;28;20206;-58
2021/06/25 03:21:13;;;;;;;14.97;11.37;;;11.90;99.90;;;;;;5061148;28;20226;-58
2021/06/25 03:23:40;;;;;;;12.53;9.50;;;11.80;99.90;;;;;;5066719;28;20286;-59
2021/06/25 03:26:07;;;;;;;15.90;10.97;;;11.70;99.90;;;;;;5063239;28;20246;-59
2021/06/25 03:28:34;;;;;;;15.87;10.53;;;11.80;99.90;;;;;;5064498;28;20285;-59
2021/06/25 03:31:01;;;;;;;18.13;11.40;;;12.10;99.90;;;;;;5064262;28;20252;-59
2021/06/25 03:33:28;;;;;;;16.13;10.73;;;12.20;99.90;;;;;;5061563;28;20206;-59
2021/06/25 03:35:55;;;;;;;15.97;11.13;;;12.30;99.90;;;;;;5061907;28;20245;-59
2021/06/25 03:38:21;;;;;;;18.47;10.70;;;12.30;99.90;;;;;;5059619;28;20202;-59
2021/06/25 03:40:48;;;;;;;16.10;10.83;;;12.30;99.90;;;;;;5061750;28;20626;-59
2021/06/25 03:43:15;;;;;;;15.53;10.63;;;12.40;99.90;;;;;;5061768;28;20207;-59
2021/06/25 03:45:43;;;;;;;19.47;10.93;;;12.30;99.90;;;;;;5062126;28;20226;-59
2021/06/25 03:48:10;;;;;;;16.37;11.23;;;12.20;99.90;;;;;;5061987;28;20627;-59
2021/06/25 03:50:37;;;;;;;17.50;11.80;;;12.20;99.90;;;;;;5059552;28;20317;-59
2021/06/25 03:53:04;;;;;;;14.67;11.10;;;12.20;99.90;;;;;;5060563;28;20234;-58
2021/06/25 03:55:31;;;;;;;14.37;10.37;;;12.30;99.90;;;;;;5058556;28;20785;-58
2021/06/25 03:57:57;;;;;;;13.83;9.70;;;12.50;99.90;;;;;;5061093;28;20272;-58
2021/06/25 04:00:24;;;;;;;14.43;10.03;;;12.60;99.90;;;;;;5063664;28;20641;-59
2021/06/25 04:02:51;;;;;;;15.33;10.57;;;12.70;99.90;;;;;;5060570;28;20261;-59
2021/06/25 04:05:18;;;;;;;13.70;10.40;;;12.70;99.90;;;;;;5062520;28;20241;-59
2021/06/25 04:07:45;;;;;;;15.17;10.67;;;12.90;99.90;;;;;;5060567;28;20227;-60
2021/06/25 04:10:13;;;;;;;13.33;9.77;;;12.70;99.90;;;;;;5061701;28;20447;-60
2021/06/25 04:12:40;;;;;;;15.97;10.93;;;12.50;99.90;;;;;;5060719;28;20305;-59
2021/06/25 04:15:07;;;;;;;16.37;10.10;;;12.70;99.90;;;;;;5041537;28;20291;-59
2021/06/25 04:17:35;;;;;;;14.70;9.70;;;12.90;99.90;;;;;;5064485;28;20265;-59
2021/06/25 04:20:04;;;;;;;14.67;10.40;;;13.00;99.90;;;;;;5063086;28;20279;-58
2021/06/25 04:22:32;;;;;;;18.03;11.70;;;13.00;99.90;;;;;;5058991;28;20230;-58
2021/06/25 04:24:59;;;;;;;15.17;11.00;;;13.00;99.90;;;;;;5059277;28;20227;-58
2021/06/25 04:27:26;;;;;;;15.67;11.53;;;12.90;99.90;;;;;;5060423;28;20289;-59
2021/06/25 04:29:52;;;;;;;15.10;11.07;;;12.80;99.90;;;;;;5060786;28;20650;-59
2021/06/25 04:32:20;;;;;;;15.17;11.00;;;12.80;99.90;;;;;;5062819;28;20298;-59
2021/06/25 04:34:48;;;;;;;17.60;12.00;;;12.90;99.90;;;;;;5062350;28;20262;-59
2021/06/25 04:37:15;;;;;;;19.63;12.33;;;12.80;99.90;;;;;;5060342;28;20326;-61
2021/06/25 04:39:42;;;;;;;21.10;13.10;;;12.60;99.90;;;;;;5059716;28;20233;-58
2021/06/25 04:42:10;;;;;;;17.60;12.43;;;12.70;99.90;;;;;;5062241;28;20727;-58
2021/06/25 04:44:38;;;;;;;21.70;11.73;;;12.90;99.90;;;;;;5061430;28;20604;-58
2021/06/25 04:47:05;;;;;;;19.97;13.37;;;13.00;99.90;;;;;;5064683;28;20194;-58
2021/06/25 04:49:35;;;;;;;18.37;12.93;;;13.10;99.90;;;;;;5063304;28;20198;-59
2021/06/25 04:52:02;;;;;;;21.67;14.03;;;12.90;99.90;;;;;;5059804;28;20302;-58
2021/06/25 04:54:29;;;;;;;22.83;13.90;;;13.10;99.90;;;;;;5064068;28;20367;-58
2021/06/25 04:56:55;;;;;;;22.93;13.53;;;13.10;99.90;;;;;;5059216;28;20233;-59
2021/06/25 04:59:22;;;;;;;24.50;14.33;;;13.20;99.90;;;;;;5061522;28;20298;-59
2021/06/25 05:01:49;;;;;;;20.40;13.80;;;13.00;99.90;;;;;;5060054;28;20209;-59
2021/06/25 05:04:16;;;;;;;22.97;13.53;;;13.10;99.90;;;;;;5061876;28;20674;-59
2021/06/25 05:06:43;;;;;;;20.23;14.00;;;13.20;99.90;;;;;;5053952;28;20208;-59
2021/06/25 05:09:09;;;;;;;21.97;14.27;;;13.20;99.90;;;;;;5062867;28;20225;-59
2021/06/25 05:11:36;;;;;;;21.57;14.37;;;13.20;99.90;;;;;;5058076;28;20227;-58
2021/06/25 05:14:03;;;;;;;23.57;15.00;;;13.10;99.90;;;;;;5060950;28;20316;-59
2021/06/25 05:16:30;;;;;;;22.70;14.07;;;13.30;99.90;;;;;;5058758;28;20238;-59
2021/06/25 05:18:57;;;;;;;20.67;14.27;;;13.30;99.90;;;;;;5063033;28;20198;-59
2021/06/25 05:21:28;;;;;;;26.83;15.83;;;13.30;99.90;;;;;;5062312;28;20228;-58
2021/06/25 05:23:55;;;;;;;25.67;15.20;;;13.30;99.90;;;;;;5059686;28;20230;-58
2021/06/25 05:26:22;;;;;;;24.03;15.47;;;13.40;99.90;;;;;;5059221;28;20225;-58
2021/06/25 05:28:49;;;;;;;23.50;14.60;;;13.60;99.90;;;;;;5045826;28;20227;-58
2021/06/25 05:31:16;;;;;;;26.27;15.33;;;13.80;99.90;;;;;;5062346;28;20217;-59
2021/06/25 05:33:43;;;;;;;25.10;15.87;;;13.80;99.90;;;;;;5061747;28;20216;-59
2021/06/25 05:36:09;;;;;;;27.43;15.17;;;13.80;99.90;;;;;;5065825;28;20345;-58
2021/06/25 05:38:36;;;;;;;24.03;15.67;;;13.80;99.90;;;;;;5066164;28;20619;-58
2021/06/25 05:41:03;;;;;;;28.60;16.30;;;13.70;99.90;;;;;;5061753;28;20639;-58
2021/06/25 05:43:30;;;;;;;30.17;16.20;;;13.80;99.90;;;;;;5065365;28;20220;-60
2021/06/25 05:45:59;;;;;;;24.67;15.07;;;13.90;99.90;;;;;;5065312;28;20494;-59
2021/06/25 05:48:26;;;;;;;24.77;15.77;;;13.80;99.90;;;;;;5066026;28;20227;-59
2021/06/25 05:50:53;;;;;;;23.93;15.03;;;14.00;99.90;;;;;;5066396;28;20374;-59
2021/06/25 05:53:20;;;;;;;26.63;17.00;;;14.00;99.90;;;;;;5064797;28;20285;-58
2021/06/25 05:55:47;;;;;;;24.27;14.93;;;14.00;99.90;;;;;;5062377;28;20374;-60
2021/06/25 05:58:14;;;;;;;25.83;15.97;;;14.10;99.90;;;;;;5063524;28;20233;-59
2021/06/25 06:00:41;;;;;;;24.93;16.23;;;14.10;99.90;;;;;;5061767;28;20231;-59
2021/06/25 06:03:08;;;;;;;23.47;16.27;;;14.10;99.90;;;;;;5068831;28;20304;-59
2021/06/25 06:05:35;;;;;;;25.77;16.17;;;14.10;99.90;;;;;;5064705;28;20301;-59
2021/06/25 06:08:03;;;;;;;25.97;16.20;;;14.10;99.90;;;;;;5062149;28;20573;-59
2021/06/25 06:10:30;;;;;;;25.73;16.13;;;14.10;99.90;;;;;;5065247;28;20286;-60
2021/06/25 06:12:58;;;;;;;24.73;16.37;;;14.20;99.90;;;;;;5057551;28;20199;-58
2021/06/25 06:15:25;;;;;;;23.17;16.13;;;14.20;99.90;;;;;;5067612;28;20206;-58
2021/06/25 06:17:52;;;;;;;24.37;16.50;;;14.10;99.90;;;;;;5060491;28;20667;-59
2021/06/25 06:20:24;;;;;;;28.10;16.87;;;14.20;99.90;;;;;;5058574;28;20206;-59
2021/06/25 06:36:39;;;;;;;29.23;17.77;;;14.40;99.90;;;;;;5067264;28;20679;-58
2021/06/25 06:39:07;;;;;;;27.23;17.37;;;14.30;99.90;;;;;;5065941;28;20562;-58
2021/06/25 06:41:34;;;;;;;27.17;17.03;;;14.50;99.90;;;;;;5065290;28;20291;-58
2021/06/25 06:44:03;;;;;;;26.80;17.17;;;14.50;99.90;;;;;;5068185;28;21007;-59
2021/06/25 06:46:30;;;;;;;27.23;16.97;;;14.50;99.90;;;;;;5070254;28;20685;-59
2021/06/25 06:48:57;;;;;;;26.43;16.17;;;14.50;99.90;;;;;;5065688;28;20198;-59
2021/06/25 06:51:24;;;;;;;26.27;16.50;;;14.50;99.90;;;;;;5063189;28;20292;-59
2021/06/25 06:53:52;;;;;;;26.83;17.83;;;14.50;99.90;;;;;;5063915;28;20284;-59
2021/06/25 06:56:20;;;;;;;25.83;15.83;;;14.60;99.90;;;;;;5064207;28;20257;-59
2021/06/25 06:58:49;;;;;;;26.87;16.97;;;14.60;99.90;;;;;;5067099;28;20231;-59
2021/06/25 07:01:16;;;;;;;28.03;16.90;;;14.70;99.90;;;;;;5067249;28;20211;-59
2021/06/25 07:04:02;;;;;;;26.30;16.43;;;14.50;99.90;;;;;;5063547;28;20218;-58
2021/06/25 07:06:29;;;;;;;23.87;16.90;;;14.60;99.90;;;;;;5062985;28;20290;-59
2021/06/25 07:08:56;;;;;;;27.40;17.37;;;14.60;99.90;;;;;;5066997;28;20214;-59
2021/06/25 07:11:23;;;;;;;28.93;17.63;;;14.60;99.90;;;;;;5062904;28;20266;-59
2021/06/25 07:13:50;;;;;;;24.70;15.23;;;14.50;99.90;;;;;;5064261;28;20298;-59
2021/06/25 07:16:17;;;;;;;26.07;17.80;;;14.50;99.90;;;;;;5068355;28;20651;-59
2021/06/25 07:18:44;;;;;;;26.57;15.90;;;14.60;99.90;;;;;;5061082;28;20257;-60
2021/06/25 07:21:11;;;;;;;25.50;16.23;;;14.70;99.90;;;;;;5063577;28;20228;-60
2021/06/25 07:23:37;;;;;;;23.40;15.90;;;14.70;99.90;;;;;;5062609;28;20231;-60
2021/06/25 07:26:05;;;;;;;24.43;16.10;;;14.70;99.90;;;;;;5060706;28;20662;-58
2021/06/25 07:28:32;;;;;;;26.20;17.17;;;14.90;99.90;;;;;;5064894;28;20242;-58
2021/06/25 07:30:58;;;;;;;24.03;15.57;;;15.00;99.90;;;;;;5066355;28;20242;-58
2021/06/25 07:33:25;;;;;;;23.60;16.00;;;15.00;99.90;;;;;;5061129;28;20219;-59
2021/06/25 07:35:55;;;;;;;20.03;14.90;;;15.00;99.90;;;;;;5060956;28;20301;-59
2021/06/25 07:38:22;;;;;;;24.10;16.53;;;15.00;99.90;;;;;;5063547;28;20290;-59
2021/06/25 07:40:49;;;;;;;24.87;16.33;;;15.10;99.90;;;;;;5061010;28;20239;-59
2021/06/25 07:43:18;;;;;;;21.17;14.63;;;15.20;99.90;;;;;;5059215;28;20205;-59
2021/06/25 07:45:45;;;;;;;23.60;16.03;;;15.20;99.90;;;;;;5061714;28;20245;-59
2021/06/25 07:48:12;;;;;;;24.53;15.70;;;15.10;99.90;;;;;;5062975;28;20634;-59
2021/06/25 07:50:39;;;;;;;25.03;15.27;;;15.20;99.90;;;;;;5062268;28;20197;-59
2021/06/25 07:53:07;;;;;;;24.17;15.73;;;15.40;99.90;;;;;;5061737;28;20684;-59
2021/06/25 07:55:34;;;;;;;21.43;15.43;;;15.50;99.90;;;;;;5063554;28;20315;-59
2021/06/25 07:58:01;;;;;;;23.93;14.40;;;15.60;99.90;;;;;;5056390;28;20622;-59
2021/06/25 08:00:28;;;;;;;23.03;15.03;;;15.40;99.90;;;;;;5064751;28;20246;-59
2021/06/25 08:02:55;;;;;;;21.47;14.43;;;15.50;99.90;;;;;;5046418;28;20228;-59
2021/06/25 08:05:22;;;;;;;21.70;14.73;;;15.60;99.90;;;;;;5057009;28;20215;-59
2021/06/25 08:07:49;;;;;;;23.80;15.23;;;15.50;99.90;;;;;;5059438;28;20273;-60
2021/06/25 08:10:16;;;;;;;21.77;15.83;;;15.50;99.90;;;;;;5054661;28;20296;-59
2021/06/25 08:12:43;;;;;;;23.00;15.53;;;15.50;99.90;;;;;;5043743;28;20344;-60
2021/06/25 08:15:10;;;;;;;22.13;14.77;;;15.60;99.90;;;;;;5052743;28;20278;-60
2021/06/25 08:17:37;;;;;;;22.40;14.90;;;15.80;99.90;;;;;;5067523;28;20739;-60
2021/06/25 08:20:06;;;;;;;18.53;13.17;;;15.90;99.90;;;;;;5063885;28;20241;-58
2021/06/25 08:22:33;;;;;;;19.20;14.03;;;16.00;99.90;;;;;;5064816;28;20235;-58
2021/06/25 08:25:00;;;;;;;20.33;13.83;;;16.00;99.90;;;;;;5064082;28;20207;-59
2021/06/25 08:27:27;;;;;;;17.70;13.23;;;16.10;99.90;;;;;;5063667;28;20276;-59
2021/06/25 08:29:57;;;;;;;23.97;15.53;;;16.20;99.90;;;;;;5063004;28;20216;-58
2021/06/25 08:32:24;;;;;;;20.70;13.57;;;16.30;99.90;;;;;;5061415;28;20213;-59
2021/06/25 08:34:50;;;;;;;21.37;13.17;;;16.30;99.90;;;;;;5065146;28;20279;-58
2021/06/25 08:37:17;;;;;;;19.07;12.73;;;16.40;99.90;;;;;;5063908;28;20197;-59
2021/06/25 08:39:44;;;;;;;19.13;13.63;;;16.50;99.90;;;;;;5063363;28;20251;-59
2021/06/25 08:42:12;;;;;;;20.93;13.47;;;16.70;99.90;;;;;;5066232;28;20705;-59
2021/06/25 08:44:40;;;;;;;17.97;13.33;;;16.80;99.90;;;;;;5065167;28;20240;-59
2021/06/25 08:47:08;;;;;;;20.90;14.00;;;16.80;99.90;;;;;;5064838;28;20197;-58
2021/06/25 08:49:37;;;;;;;20.90;13.97;;;16.90;99.90;;;;;;5064445;28;20232;-59
2021/06/25 08:52:05;;;;;;;19.07;13.33;;;17.30;99.90;;;;;;5063558;28;20254;-59
2021/06/25 08:54:33;;;;;;;20.23;13.90;;;17.70;99.90;;;;;;5064891;28;20336;-59
2021/06/25 08:57:03;;;;;;;21.80;13.47;;;18.00;99.90;;;;;;5065201;28;20252;-59
2021/06/25 08:59:31;;;;;;;20.23;13.20;;;18.00;99.90;;;;;;5066057;28;20600;-58
2021/06/25 09:01:58;;;;;;;23.07;12.87;;;18.00;99.90;;;;;;5063937;28;20323;-58
2021/06/25 09:04:43;;;;;;;20.77;13.07;;;18.00;99.90;;;;;;5063508;28;20202;-58
2021/06/25 09:07:11;;;;;;;19.37;12.87;;;17.80;99.90;;;;;;5063924;28;20303;-58
2021/06/25 09:09:49;;;;;;;19.13;12.97;;;17.90;99.90;;;;;;5060446;28;20230;-58
2021/06/25 09:12:23;;;;;;;17.60;12.57;;;17.90;99.90;;;;;;5057589;28;20653;-59
2021/06/25 09:15:05;;;;;;;14.93;11.97;;;18.00;99.90;;;;;;5059773;28;20207;-58
2021/06/25 09:17:34;;;;;;;16.60;12.17;;;18.10;99.90;;;;;;5065245;28;20690;-52
2021/06/25 09:20:05;;;;;;;23.27;13.30;;;18.20;99.90;;;;;;5063921;28;20204;-51
2021/06/25 09:22:48;;;;;;;16.20;11.70;;;18.20;99.90;;;;;;5064792;28;20206;-51
2021/06/25 09:25:15;;;;;;;16.43;11.37;;;18.30;99.90;;;;;;5062614;28;20239;-52
2021/06/25 09:27:42;;;;;;;18.30;12.60;;;18.40;99.90;;;;;;5054860;28;20231;-51
2021/06/25 09:30:11;;;;;;;18.40;12.30;;;18.60;99.90;;;;;;5063899;28;20260;-52
2021/06/25 09:32:48;;;;;;;17.27;11.90;;;18.80;99.90;;;;;;5062864;28;20304;-52
2021/06/25 09:35:21;;;;;;;17.17;12.20;;;19.30;99.90;;;;;;5059501;28;20197;-52
2021/06/25 09:37:50;;;;;;;14.67;11.07;;;19.70;99.90;;;;;;5068635;28;20578;-51
2021/06/25 09:40:18;;;;;;;20.00;11.97;;;20.10;99.90;;;;;;5062189;28;20271;-52
2021/06/25 09:43:06;;;;;;;19.67;12.63;;;20.20;99.90;;;;;;5055697;28;20315;-52
2021/06/25 09:45:33;;;;;;;16.57;11.27;;;19.90;99.90;;;;;;5066175;28;20621;-51
2021/06/25 09:48:01;;;;;;;16.97;11.97;;;19.90;99.90;;;;;;5060351;28;20203;-52
2021/06/25 09:50:33;;;;;;;16.53;12.00;;;19.60;99.90;;;;;;5057688;28;20276;-50
2021/06/25 09:53:05;;;;;;;16.23;10.83;;;19.30;99.90;;;;;;5066286;28;20530;-52
2021/06/25 09:55:55;;;;;;;13.73;10.03;;;19.40;99.90;;;;;;5064368;28;20561;-52
2021/06/25 09:58:41;;;;;;;13.23;9.20;;;19.20;99.90;;;;;;5059092;28;20289;-51
2021/06/25 10:01:24;;;;;;;12.30;8.37;;;19.20;99.90;;;;;;5060867;28;20340;-51
2021/06/25 10:03:57;;;;;;;12.57;8.67;;;19.30;99.90;;;;;;5059127;28;20282;-51
2021/06/25 10:06:28;;;;;;;10.27;7.57;;;19.20;99.90;;;;;;5058698;28;20304;-52
2021/06/25 10:08:56;;;;;;;12.67;8.07;;;19.30;99.90;;;;;;5063286;28;20874;-52
2021/06/25 10:11:26;;;;;;;12.70;8.00;;;19.20;99.90;;;;;;5061317;28;20257;-52
2021/06/25 10:13:55;;;;;;;12.27;8.17;;;19.20;99.90;;;;;;5061676;28;20636;-52
2021/06/25 10:16:24;;;;;;;12.57;8.03;;;19.10;99.90;;;;;;5064655;28;20584;-52
2021/06/25 10:18:56;;;;;;;10.17;7.60;;;19.10;99.90;;;;;;5063443;28;20202;-51
2021/06/25 10:21:29;;;;;;;9.80;7.57;;;19.20;99.90;;;;;;5067385;28;20226;-52
2021/06/25 10:24:04;;;;;;;9.07;6.67;;;19.10;99.90;;;;;;5065036;28;20207;-52
2021/06/25 10:26:32;;;;;;;13.90;8.00;;;19.20;99.90;;;;;;5066980;28;20294;-52
2021/06/25 10:29:00;;;;;;;14.10;7.60;;;19.30;99.90;;;;;;5065821;28;20238;-52
2021/06/25 10:31:27;;;;;;;11.57;7.33;;;19.40;99.90;;;;;;5061338;28;20202;-52
2021/06/25 10:33:55;;;;;;;11.00;7.97;;;19.40;92.80;;;;;;5068467;28;20378;-51
2021/06/25 10:36:32;;;;;;;9.50;7.97;;;19.40;99.90;;;;;;5059187;28;20191;-51
2021/06/25 10:39:10;;;;;;;10.03;7.40;;;19.50;97.00;;;;;;5063561;28;20561;-52
2021/06/25 10:41:52;;;;;;;9.37;6.80;;;19.50;99.90;;;;;;5062056;28;20334;-52
2021/06/25 10:44:37;;;;;;;8.90;7.07;;;19.60;99.90;;;;;;5063710;28;20680;-51
2021/06/25 10:47:24;;;;;;;11.43;6.93;;;19.60;95.00;;;;;;5063508;28;20293;-51
2021/06/25 10:50:00;;;;;;;9.77;7.57;;;19.60;95.10;;;;;;5065553;28;20232;-51
2021/06/25 10:52:26;;;;;;;9.00;6.30;;;19.50;93.80;;;;;;5065205;28;20223;-52
2021/06/25 10:55:01;;;;;;;9.67;6.30;;;19.50;89.70;;;;;;5062843;28;20793;-52
2021/06/25 10:57:29;;;;;;;12.07;6.70;;;19.50;92.70;;;;;;5061520;28;20713;-51
2021/06/25 10:59:57;;;;;;;8.37;5.70;;;19.50;94.60;;;;;;5067048;28;20203;-52
2021/06/25 11:02:50;;;;;;;11.63;6.80;;;19.40;99.30;;;;;;5061753;28;20197;-52
2021/06/25 11:05:26;;;;;;;9.33;5.70;;;19.30;92.10;;;;;;5060190;28;20298;-51
2021/06/25 11:07:53;;;;;;;8.63;6.73;;;19.20;94.50;;;;;;5059643;28;20629;-52
2021/06/25 11:10:22;;;;;;;8.00;5.90;;;19.20;94.40;;;;;;5063106;28;20207;-51
2021/06/25 11:12:50;;;;;;;8.83;6.17;;;19.20;99.90;;;;;;5060486;28;20273;-51
2021/06/25 11:15:31;;;;;;;9.30;6.17;;;19.30;99.40;;;;;;5057457;28;20378;-52
2021/06/25 11:18:00;;;;;;;9.13;6.23;;;19.20;99.90;;;;;;5061265;28;20251;-52
2021/06/25 11:20:27;;;;;;;8.47;5.93;;;19.30;99.90;;;;;;5061557;28;20525;-51
2021/06/25 11:22:56;;;;;;;7.90;5.83;;;19.30;99.90;;;;;;5064533;28;20200;-51
2021/06/25 11:25:35;;;;;;;7.73;6.27;;;19.40;99.90;;;;;;5064791;28;20272;-52
2021/06/25 11:28:47;;;;;;;8.50;5.83;;;19.40;99.90;;;;;;5061836;28;20218;-51
2021/06/25 11:31:14;;;;;;;9.40;6.20;;;19.40;99.90;;;;;;5060360;28;20297;-52
2021/06/25 11:33:54;;;;;;;9.83;6.73;;;19.50;99.90;;;;;;5068839;28;20624;-51
2021/06/25 11:36:38;;;;;;;9.80;7.03;;;19.50;99.90;;;;;;5062767;28;20226;-51
2021/06/25 11:39:17;;;;;;;10.00;6.00;;;19.60;99.90;;;;;;5063441;28;20203;-51
2021/06/25 11:41:51;;;;;;;8.97;6.00;;;19.60;99.90;;;;;;5061997;28;20199;-51
2021/06/25 11:44:19;;;;;;;9.03;5.93;;;19.60;99.90;;;;;;5061116;28;20313;-52
2021/06/25 11:46:50;;;;;;;9.13;5.83;;;19.60;99.90;;;;;;5064345;28;20757;-51
2021/06/25 11:49:16;;;;;;;8.07;5.83;;;19.70;99.90;;;;;;5063289;28;20298;-51
2021/06/25 11:51:44;;;;;;;7.67;5.33;;;19.80;99.90;;;;;;5066135;28;20230;-52
2021/06/25 11:54:13;;;;;;;8.70;6.17;;;19.70;99.90;;;;;;5062110;28;20396;-51
2021/06/25 11:56:44;;;;;;;9.33;6.90;;;19.80;99.90;;;;;;5060952;28;20659;-51
2021/06/25 11:59:13;;;;;;;8.10;6.03;;;19.60;99.90;;;;;;5063160;28;20620;-52
2021/06/25 12:02:01;;;;;;;9.23;6.37;;;19.50;99.90;;;;;;5062616;28;20236;-51
2021/06/25 12:04:42;;;;;;;10.97;6.63;;;19.60;99.90;;;;;;5058719;28;20285;-52
2021/06/25 12:07:12;;;;;;;8.57;6.27;;;19.80;99.90;;;;;;5064909;28;20327;-52
2021/06/25 12:09:42;;;;;;;9.07;6.60;;;19.80;99.90;;;;;;5065230;28;20226;-51
2021/06/25 12:12:11;;;;;;;11.03;7.00;;;19.70;99.90;;;;;;5064595;28;20547;-51
2021/06/25 12:14:43;;;;;;;10.30;6.53;;;19.60;99.90;;;;;;5068016;28;20298;-52
2021/06/25 12:17:10;;;;;;;8.83;6.23;;;19.40;99.90;;;;;;5064218;28;20211;-52
2021/06/25 12:19:37;;;;;;;8.47;6.40;;;19.40;94.90;;;;;;5062934;28;20829;-52
2021/06/25 12:22:08;;;;;;;10.23;6.20;;;19.30;95.10;;;;;;5062202;28;20584;-52
2021/06/25 12:24:53;;;;;;;8.73;5.37;;;19.40;93.70;;;;;;5063523;28;20210;-52
2021/06/25 12:27:34;;;;;;;8.77;6.27;;;19.20;89.30;;;;;;5056995;28;20199;-52
2021/06/25 12:30:05;;;;;;;8.67;6.27;;;19.30;93.90;;;;;;5061906;28;20235;-53
2021/06/25 12:32:33;;;;;;;10.53;6.30;;;19.30;90.00;;;;;;5061208;28;20310;-50
2021/06/25 12:35:00;;;;;;;9.73;6.50;;;19.50;85.40;;;;;;5064770;28;20266;-51
2021/06/25 12:37:46;;;;;;;8.37;5.03;;;19.50;82.00;;;;;;5066283;28;20299;-51
2021/06/25 12:40:34;;;;;;;8.20;5.30;;;19.50;70.80;;;;;;5062598;28;20665;-51
2021/06/25 12:43:01;;;;;;;6.90;5.73;;;19.60;91.20;;;;;;5064389;28;20255;-59
2021/06/25 12:45:37;;;;;;;10.50;6.23;;;19.70;71.70;;;;;;5062374;28;20643;-61
2021/06/25 12:48:15;;;;;;;8.97;5.80;;;19.60;62.20;;;;;;5060127;28;20260;-51
2021/06/25 12:50:42;;;;;;;7.63;5.30;;;19.40;75.20;;;;;;5065797;28;20712;-51
2021/06/25 12:53:18;;;;;;;7.57;5.73;;;19.40;89.10;;;;;;5062005;28;20246;-52
2021/06/25 12:55:46;;;;;;;8.27;5.53;;;19.20;87.90;;;;;;5063415;28;20255;-52
2021/06/25 12:58:19;;;;;;;9.20;6.30;;;19.30;93.20;;;;;;5065595;28;20199;-52